createdAt,value
2019-06-27T00:00:18.350Z,84.03
2019-06-27T00:01:18.320Z,83.52
2019-06-27T00:02:18.307Z,83.82
2019-06-27T00:03:18.323Z,83.96
2019-06-27T00:04:18.295Z,83.66
2019-06-27T00:05:18.279Z,84.57
2019-06-27T00:06:18.292Z,84.77
2019-06-27T00:07:18.259Z,84.27
2019-06-27T00:08:18.275Z,84.27
2019-06-27T00:09:18.254Z,84.27
2019-06-27T00:10:18.225Z,84.57
2019-06-27T00:11:18.215Z,84.47
2019-06-27T00:12:18.265Z,84.47
2019-06-27T00:13:18.206Z,84.17
2019-06-27T00:14:18.177Z,84.27
2019-06-27T00:15:18.195Z,84.31
2019-06-27T00:16:18.167Z,83.96
2019-06-27T00:17:18.152Z,84.17
2019-06-27T00:18:18.153Z,84.31
2019-06-27T00:19:18.123Z,84.57
2019-06-27T00:20:18.117Z,84.37
2019-06-27T00:21:18.100Z,84.06
2019-06-27T00:22:18.102Z,84.17
2019-06-27T00:23:18.096Z,83.80
2019-06-27T00:24:18.064Z,84.20
2019-06-27T00:25:18.069Z,84.81
2019-06-27T00:26:18.060Z,84.41
2019-06-27T00:27:18.055Z,84.61
2019-06-27T00:28:18.036Z,84.71
2019-06-27T00:29:18.018Z,84.67
2019-06-27T00:30:18.203Z,83.96
2019-06-27T00:31:18.002Z,83.86
2019-06-27T00:32:17.987Z,84.27
2019-06-27T00:33:17.992Z,83.86
2019-06-27T00:34:17.954Z,84.67
2019-06-27T00:35:17.938Z,83.66
2019-06-27T00:36:17.944Z,83.76
2019-06-27T00:37:17.929Z,84.17
2019-06-27T00:38:17.932Z,83.56
2019-06-27T00:39:17.916Z,83.96
2019-06-27T00:40:17.901Z,83.96
2019-06-27T00:41:17.895Z,83.36
2019-06-27T00:42:17.869Z,83.76
2019-06-27T00:43:17.863Z,83.66
2019-06-27T00:44:17.874Z,83.66
2019-06-27T00:45:17.839Z,83.36
2019-06-27T00:46:17.831Z,84.27
2019-06-27T00:47:17.810Z,84.27
2019-06-27T00:48:17.808Z,83.26
2019-06-27T00:49:17.805Z,83.80
2019-06-27T00:50:17.781Z,83.70
2019-06-27T00:51:17.771Z,83.60
2019-06-27T00:52:17.755Z,84.00
2019-06-27T00:53:17.746Z,83.56
2019-06-27T00:54:17.764Z,83.90
2019-06-27T00:55:17.738Z,83.96
2019-06-27T00:56:17.728Z,83.86
2019-06-27T00:57:17.724Z,82.95
2019-06-27T00:58:17.689Z,82.75
2019-06-27T00:59:17.700Z,83.05
2019-06-27T01:00:17.671Z,83.36
2019-06-27T01:01:17.659Z,82.89
2019-06-27T01:03:26.850Z,83.80
2019-06-27T01:04:27.847Z,83.19
2019-06-27T01:05:27.826Z,84.11
2019-06-27T01:06:27.796Z,84.31
2019-06-27T01:07:27.791Z,83.50
2019-06-27T01:08:27.775Z,84.11
2019-06-27T01:09:27.795Z,84.51
2019-06-27T01:10:27.773Z,84.71
2019-06-27T01:11:27.758Z,84.71
2019-06-27T01:12:27.740Z,84.71
2019-06-27T01:13:27.731Z,84.51
2019-06-27T01:14:27.735Z,84.71
2019-06-27T01:15:27.704Z,84.34
2019-06-27T01:16:27.721Z,83.29
2019-06-27T01:17:27.678Z,83.50
2019-06-27T01:18:27.683Z,83.70
2019-06-27T01:19:27.674Z,83.90
2019-06-27T01:20:27.647Z,84.11
2019-06-27T01:21:27.634Z,84.00
2019-06-27T01:22:27.642Z,83.60
2019-06-27T01:23:27.626Z,83.84
2019-06-27T01:24:27.651Z,83.74
2019-06-27T01:25:27.598Z,83.84
2019-06-27T01:26:27.589Z,83.94
2019-06-27T01:27:30.229Z,83.84
2019-06-27T01:28:27.567Z,84.04
2019-06-27T01:29:27.576Z,83.64
2019-06-27T01:30:27.562Z,84.14
2019-06-27T01:31:27.525Z,83.94
2019-06-27T01:32:28.082Z,83.44
2019-06-27T01:33:27.503Z,83.33
2019-06-27T01:34:27.516Z,83.84
2019-06-27T01:35:27.497Z,83.84
2019-06-27T01:36:27.471Z,83.33
2019-06-27T01:37:27.473Z,83.94
2019-06-27T01:38:27.463Z,83.64
2019-06-27T01:39:27.462Z,84.04
2019-06-27T01:40:27.446Z,83.94
2019-06-27T01:41:27.426Z,83.94
2019-06-27T01:42:27.417Z,84.55
2019-06-27T01:43:27.420Z,83.98
2019-06-27T01:44:27.413Z,83.54
2019-06-27T01:45:27.407Z,83.47
2019-06-27T01:46:27.365Z,83.68
2019-06-27T01:47:27.363Z,83.47
2019-06-27T01:48:27.349Z,83.68
2019-06-27T01:49:27.346Z,83.84
2019-06-27T01:50:27.354Z,83.74
2019-06-27T01:51:27.321Z,83.88
2019-06-27T01:52:27.306Z,83.84
2019-06-27T01:53:27.308Z,83.94
2019-06-27T01:54:27.289Z,83.64
2019-06-27T01:55:27.290Z,83.94
2019-06-27T01:56:27.268Z,82.97
2019-06-27T01:57:27.251Z,83.78
2019-06-27T01:58:27.240Z,83.84
2019-06-27T01:59:27.240Z,83.44
2019-06-27T02:00:27.240Z,83.37
2019-06-27T02:01:27.208Z,83.23
2019-06-27T02:02:27.201Z,83.07
2019-06-27T02:03:27.195Z,82.93
2019-06-27T02:04:27.173Z,82.73
2019-06-27T02:05:27.179Z,82.73
2019-06-27T02:06:27.157Z,82.83
2019-06-27T02:07:27.146Z,82.62
2019-06-27T02:08:27.126Z,82.62
2019-06-27T02:09:27.112Z,82.12
2019-06-27T02:10:27.121Z,82.93
2019-06-27T02:11:27.098Z,82.62
2019-06-27T02:12:27.099Z,83.03
2019-06-27T02:13:27.090Z,82.93
2019-06-27T02:14:27.109Z,82.12
2019-06-27T02:15:27.076Z,82.12
2019-06-27T02:16:27.060Z,83.03
2019-06-27T02:17:27.036Z,82.62
2019-06-27T02:18:27.011Z,82.73
2019-06-27T02:19:27.013Z,82.32
2019-06-27T02:20:27.000Z,83.03
2019-06-27T02:21:27.004Z,82.87
2019-06-27T02:22:26.983Z,83.17
2019-06-27T02:23:26.974Z,82.87
2019-06-27T02:24:26.959Z,83.47
2019-06-27T02:25:26.947Z,83.47
2019-06-27T02:26:26.975Z,83.17
2019-06-27T02:27:26.923Z,83.23
2019-06-27T02:28:26.903Z,83.27
2019-06-27T02:29:26.895Z,83.07
2019-06-27T02:30:26.909Z,83.07
2019-06-27T02:31:26.892Z,83.47
2019-06-27T02:32:26.874Z,83.07
2019-06-27T02:33:26.859Z,82.83
2019-06-27T02:34:26.858Z,83.03
2019-06-27T02:35:26.837Z,82.93
2019-06-27T02:36:26.837Z,82.93
2019-06-27T02:37:26.806Z,82.73
2019-06-27T02:38:26.808Z,82.62
2019-06-27T02:39:26.789Z,82.73
2019-06-27T02:40:26.795Z,83.07
2019-06-27T02:41:26.797Z,82.87
2019-06-27T02:42:26.753Z,82.67
2019-06-27T02:43:26.763Z,82.87
2019-06-27T02:44:26.736Z,82.56
2019-06-27T02:45:26.722Z,82.76
2019-06-27T02:46:26.862Z,82.30
2019-06-27T02:47:26.715Z,82.70
2019-06-27T02:48:26.690Z,82.60
2019-06-27T02:49:26.680Z,82.20
2019-06-27T02:50:26.687Z,82.70
2019-06-27T02:51:26.765Z,82.50
2019-06-27T02:52:26.676Z,81.90
2019-06-27T02:53:26.642Z,82.30
2019-06-27T02:54:26.622Z,81.79
2019-06-27T02:55:26.621Z,82.10
2019-06-27T02:56:26.600Z,82.06
2019-06-27T02:57:26.616Z,82.06
2019-06-27T02:58:31.633Z,81.55
2019-06-27T02:59:26.583Z,80.94
2019-06-27T03:00:26.572Z,81.59
2019-06-27T03:01:26.546Z,81.59
2019-06-27T03:02:26.566Z,81.59
2019-06-27T03:04:36.028Z,81.18
2019-06-27T03:05:37.010Z,81.59
2019-06-27T03:06:37.004Z,81.29
2019-06-27T03:07:37.023Z,81.18
2019-06-27T03:08:36.985Z,81.09
2019-06-27T03:09:36.966Z,81.18
2019-06-27T03:10:36.969Z,82.20
2019-06-27T03:11:36.964Z,80.98
2019-06-27T03:12:36.976Z,81.39
2019-06-27T03:13:36.931Z,81.18
2019-06-27T03:14:36.926Z,80.68
2019-06-27T03:15:36.903Z,81.18
2019-06-27T03:16:36.901Z,81.29
2019-06-27T03:17:36.911Z,81.39
2019-06-27T03:18:36.894Z,81.49
2019-06-27T03:19:36.869Z,80.78
2019-06-27T03:20:36.849Z,80.58
2019-06-27T03:21:36.853Z,81.09
2019-06-27T03:22:37.004Z,81.18
2019-06-27T03:23:36.910Z,81.18
2019-06-27T03:24:36.816Z,81.18
2019-06-27T03:25:36.810Z,81.49
2019-06-27T03:26:36.792Z,81.18
2019-06-27T03:27:36.792Z,81.79
2019-06-27T03:28:50.918Z,81.09
2019-06-27T03:29:36.751Z,81.18
2019-06-27T03:30:36.748Z,81.79
2019-06-27T03:31:36.738Z,80.88
2019-06-27T03:32:36.742Z,81.49
2019-06-27T03:33:36.704Z,80.98
2019-06-27T03:34:36.705Z,81.90
2019-06-27T03:35:36.686Z,80.68
2019-06-27T03:36:36.681Z,81.59
2019-06-27T03:37:36.680Z,81.18
2019-06-27T03:38:36.656Z,81.43
2019-06-27T03:39:36.650Z,81.63
2019-06-27T03:40:36.638Z,81.18
2019-06-27T03:41:36.627Z,81.63
2019-06-27T03:42:36.624Z,81.23
2019-06-27T03:43:36.596Z,81.09
2019-06-27T03:44:36.610Z,81.18
2019-06-27T03:45:36.580Z,81.39
2019-06-27T03:46:36.577Z,80.68
2019-06-27T03:47:36.583Z,81.18
2019-06-27T03:48:36.550Z,80.58
2019-06-27T03:49:36.531Z,81.39
2019-06-27T03:50:36.518Z,81.18
2019-06-27T03:51:36.508Z,81.29
2019-06-27T03:52:36.524Z,81.59
2019-06-27T03:53:36.488Z,81.39
2019-06-27T03:54:36.470Z,81.39
2019-06-27T03:55:36.473Z,81.49
2019-06-27T03:56:36.462Z,81.18
2019-06-27T03:57:36.470Z,80.64
2019-06-27T03:58:36.461Z,80.98
2019-06-27T03:59:36.433Z,80.47
2019-06-27T04:00:36.415Z,80.98
2019-06-27T04:01:36.398Z,80.58
2019-06-27T04:02:36.526Z,80.78
2019-06-27T04:03:36.385Z,80.78
2019-06-27T04:04:36.365Z,81.49
2019-06-27T04:05:36.370Z,80.98
2019-06-27T04:06:36.347Z,80.94
2019-06-27T04:07:36.361Z,81.18
2019-06-27T04:08:36.340Z,80.54
2019-06-27T04:09:36.315Z,80.74
2019-06-27T04:10:36.311Z,80.94
2019-06-27T04:11:36.296Z,80.13
2019-06-27T04:12:36.398Z,80.44
2019-06-27T04:13:36.271Z,80.68
2019-06-27T04:14:36.261Z,80.38
2019-06-27T04:15:36.259Z,80.88
2019-06-27T04:16:36.231Z,80.94
2019-06-27T04:17:36.217Z,80.68
2019-06-27T04:18:36.222Z,80.64
2019-06-27T04:19:36.192Z,80.38
2019-06-27T04:20:36.184Z,81.09
2019-06-27T04:21:36.179Z,81.18
2019-06-27T04:22:36.161Z,81.25
2019-06-27T04:23:36.166Z,80.68
2019-06-27T04:24:36.136Z,80.74
2019-06-27T04:25:36.152Z,80.54
2019-06-27T04:26:36.133Z,80.64
2019-06-27T04:27:36.101Z,80.64
2019-06-27T04:28:36.118Z,80.94
2019-06-27T04:29:36.134Z,81.01
2019-06-27T04:30:36.073Z,80.10
2019-06-27T04:31:36.071Z,80.10
2019-06-27T04:32:36.052Z,80.40
2019-06-27T04:33:36.057Z,80.64
2019-06-27T04:34:36.039Z,80.54
2019-06-27T04:35:36.025Z,80.20
2019-06-27T04:36:36.015Z,80.84
2019-06-27T04:37:36.005Z,80.74
2019-06-27T04:38:36.004Z,79.93
2019-06-27T04:39:35.969Z,79.53
2019-06-27T04:40:35.966Z,79.22
2019-06-27T04:41:35.951Z,79.36
2019-06-27T04:42:35.938Z,78.31
2019-06-27T04:43:35.956Z,78.21
2019-06-27T04:44:35.921Z,77.84
2019-06-27T04:45:35.911Z,79.16
2019-06-27T04:46:35.907Z,79.46
2019-06-27T04:47:35.877Z,78.75
2019-06-27T04:48:35.898Z,79.16
2019-06-27T04:49:35.867Z,79.36
2019-06-27T04:50:35.851Z,79.16
2019-06-27T04:51:35.841Z,78.45
2019-06-27T04:52:35.819Z,78.45
2019-06-27T04:53:35.837Z,78.45
2019-06-27T04:54:35.800Z,78.55
2019-06-27T04:55:35.875Z,78.55
2019-06-27T04:56:35.785Z,78.01
2019-06-27T04:57:35.772Z,76.66
2019-06-27T04:58:35.771Z,75.92
2019-06-27T04:59:51.939Z,75.17
2019-06-27T05:00:35.742Z,74.77
2019-06-27T05:01:35.732Z,74.97
2019-06-27T05:02:35.725Z,74.93
2019-06-27T05:03:35.735Z,73.52
2019-06-27T05:05:44.893Z,73.72
2019-06-27T05:06:45.865Z,72.88
2019-06-27T05:07:45.853Z,72.91
2019-06-27T05:08:45.864Z,73.52
2019-06-27T05:09:45.852Z,75.17
2019-06-27T05:10:45.843Z,75.10
2019-06-27T05:11:45.822Z,74.46
2019-06-27T05:12:45.812Z,74.60
2019-06-27T05:13:45.826Z,74.57
2019-06-27T05:14:45.788Z,74.77
2019-06-27T05:15:45.779Z,74.16
2019-06-27T05:16:45.751Z,73.66
2019-06-27T05:17:45.742Z,74.16
2019-06-27T05:18:45.767Z,73.75
2019-06-27T05:19:45.731Z,73.46
2019-06-27T05:20:45.708Z,73.15
2019-06-27T05:21:45.711Z,73.66
2019-06-27T05:22:45.688Z,73.59
2019-06-27T05:23:45.697Z,74.10
2019-06-27T05:24:45.695Z,74.60
2019-06-27T05:25:45.657Z,74.60
2019-06-27T05:26:45.663Z,73.66
2019-06-27T05:27:45.644Z,72.95
2019-06-27T05:28:45.649Z,72.95
2019-06-27T05:29:45.607Z,72.61
2019-06-27T05:30:45.600Z,73.25
2019-06-27T05:31:45.599Z,72.95
2019-06-27T05:32:45.600Z,72.75
2019-06-27T05:33:45.611Z,72.14
2019-06-27T05:34:45.573Z,71.80
2019-06-27T05:35:45.550Z,71.73
2019-06-27T05:36:45.545Z,71.91
2019-06-27T05:37:45.520Z,70.76
2019-06-27T05:38:45.529Z,70.49
2019-06-27T05:39:45.494Z,71.91
2019-06-27T05:40:45.490Z,70.49
2019-06-27T05:41:45.478Z,70.49
2019-06-27T05:42:45.471Z,70.49
2019-06-27T05:43:45.463Z,70.26
2019-06-27T05:44:45.472Z,70.02
2019-06-27T05:45:45.470Z,69.11
2019-06-27T05:46:45.436Z,69.42
2019-06-27T05:47:45.517Z,69.24
2019-06-27T05:48:45.413Z,70.06
2019-06-27T05:49:45.401Z,70.09
2019-06-27T05:50:45.468Z,70.39
2019-06-27T05:51:45.423Z,70.39
2019-06-27T05:52:45.381Z,69.89
2019-06-27T05:53:45.793Z,69.85
2019-06-27T05:54:45.455Z,69.95
2019-06-27T05:55:45.373Z,70.06
2019-06-27T05:56:45.307Z,69.65
2019-06-27T05:57:45.355Z,70.06
2019-06-27T05:58:45.321Z,69.21
2019-06-27T05:59:45.311Z,68.17
2019-06-27T06:00:45.277Z,68.17
2019-06-27T06:01:45.331Z,67.47
2019-06-27T06:02:45.256Z,66.96
2019-06-27T06:03:45.240Z,68.17
2019-06-27T06:04:45.235Z,68.77
2019-06-27T06:05:45.247Z,67.97
2019-06-27T06:06:45.213Z,67.13
2019-06-27T06:07:45.200Z,67.33
2019-06-27T06:08:45.188Z,67.03
2019-06-27T06:09:45.195Z,67.47
2019-06-27T06:10:45.165Z,67.13
2019-06-27T06:11:45.148Z,67.13
2019-06-27T06:12:45.141Z,67.23
2019-06-27T06:13:45.157Z,66.09
2019-06-27T06:14:45.155Z,67.27
2019-06-27T06:15:45.148Z,66.42
2019-06-27T06:16:45.111Z,66.96
2019-06-27T06:17:45.079Z,67.16
2019-06-27T06:18:45.064Z,67.67
2019-06-27T06:19:45.105Z,68.41
2019-06-27T06:20:45.073Z,68.71
2019-06-27T06:21:45.049Z,68.21
2019-06-27T06:22:45.049Z,68.48
2019-06-27T06:23:45.041Z,67.97
2019-06-27T06:24:45.084Z,67.13
2019-06-27T06:25:45.020Z,66.53
2019-06-27T06:26:45.009Z,65.82
2019-06-27T06:27:45.116Z,67.03
2019-06-27T06:28:44.980Z,66.36
2019-06-27T06:29:45.005Z,66.76
2019-06-27T06:30:45.440Z,67.27
2019-06-27T06:31:44.933Z,67.27
2019-06-27T06:32:44.926Z,67.03
2019-06-27T06:33:44.917Z,66.42
2019-06-27T06:34:44.900Z,65.89
2019-06-27T06:35:44.933Z,65.79
2019-06-27T06:36:44.885Z,65.59
2019-06-27T06:37:44.859Z,65.09
2019-06-27T06:38:44.892Z,65.69
2019-06-27T06:39:44.853Z,66.46
2019-06-27T06:40:44.884Z,66.56
2019-06-27T06:41:44.820Z,66.46
2019-06-27T06:42:44.832Z,66.46
2019-06-27T06:43:44.794Z,66.36
2019-06-27T06:44:44.794Z,66.76
2019-06-27T06:45:44.790Z,66.33
2019-06-27T06:46:44.792Z,65.32
2019-06-27T06:47:44.879Z,65.01
2019-06-27T06:48:44.840Z,65.56
2019-06-27T06:49:44.722Z,64.95
2019-06-27T06:50:44.748Z,64.05
2019-06-27T06:51:44.714Z,63.92
2019-06-27T06:52:44.689Z,63.75
2019-06-27T06:53:44.715Z,63.95
2019-06-27T06:54:44.706Z,64.89
2019-06-27T06:55:44.680Z,64.69
2019-06-27T06:56:44.681Z,64.45
2019-06-27T06:57:44.665Z,64.15
2019-06-27T06:58:44.642Z,64.45
2019-06-27T06:59:44.669Z,64.75
2019-06-27T07:01:00.338Z,65.22
2019-06-27T07:01:45.758Z,65.62
2019-06-27T07:02:44.668Z,65.32
2019-06-27T07:03:44.609Z,65.29
2019-06-27T07:04:44.580Z,64.28
2019-06-27T07:06:53.851Z,65.15
2019-06-27T07:07:54.778Z,66.39
2019-06-27T07:08:54.777Z,66.25
2019-06-27T07:09:54.871Z,65.35
2019-06-27T07:10:54.842Z,65.28
2019-06-27T07:11:54.755Z,65.18
2019-06-27T07:12:54.781Z,64.84
2019-06-27T07:13:54.761Z,64.21
2019-06-27T07:14:54.705Z,63.57
2019-06-27T07:15:54.718Z,62.94
2019-06-27T07:16:54.735Z,62.61
2019-06-27T07:17:54.669Z,62.51
2019-06-27T07:18:54.705Z,62.77
2019-06-27T07:19:57.462Z,63.98
2019-06-27T07:20:54.668Z,62.34
2019-06-27T07:21:54.629Z,61.73
2019-06-27T07:22:54.629Z,61.80
2019-06-27T07:23:54.599Z,60.19
2019-06-27T07:24:54.601Z,59.46
2019-06-27T07:25:54.606Z,58.95
2019-06-27T07:26:54.617Z,59.66
2019-06-27T07:27:54.564Z,60.06
2019-06-27T07:28:54.567Z,60.19
2019-06-27T07:29:54.548Z,61.00
2019-06-27T07:30:54.597Z,61.30
2019-06-27T07:31:54.523Z,61.30
2019-06-27T07:32:54.522Z,61.53
2019-06-27T07:33:54.493Z,62.04
2019-06-27T07:34:54.509Z,63.07
2019-06-27T07:35:54.480Z,62.77
2019-06-27T07:36:54.473Z,62.04
2019-06-27T07:37:54.572Z,61.83
2019-06-27T07:38:54.435Z,62.44
2019-06-27T07:39:54.413Z,61.00
2019-06-27T07:40:54.441Z,62.44
2019-06-27T07:41:54.394Z,61.80
2019-06-27T07:42:54.459Z,63.34
2019-06-27T07:43:54.383Z,62.54
2019-06-27T07:44:54.425Z,63.01
2019-06-27T07:45:54.475Z,62.41
2019-06-27T07:46:54.364Z,62.01
2019-06-27T07:47:54.331Z,62.51
2019-06-27T07:48:54.311Z,62.51
2019-06-27T07:49:54.299Z,63.31
2019-06-27T07:50:54.319Z,63.04
2019-06-27T07:51:54.427Z,62.51
2019-06-27T07:52:54.273Z,61.40
2019-06-27T07:53:54.305Z,61.07
2019-06-27T07:54:54.244Z,61.04
2019-06-27T07:55:54.333Z,61.00
2019-06-27T07:56:55.168Z,61.10
2019-06-27T07:57:54.212Z,61.63
2019-06-27T07:58:54.215Z,61.90
2019-06-27T07:59:54.536Z,61.04
2019-06-27T08:00:54.205Z,59.80
2019-06-27T08:01:54.251Z,59.20
2019-06-27T08:02:54.223Z,59.50
2019-06-27T08:03:54.152Z,61.50
2019-06-27T08:04:54.143Z,61.90
2019-06-27T08:05:54.127Z,62.10
2019-06-27T08:06:54.163Z,63.27
2019-06-27T08:07:55.183Z,62.46
2019-06-27T08:08:55.194Z,63.14
2019-06-27T08:09:54.993Z,61.07
2019-06-27T08:10:54.635Z,59.60
2019-06-27T08:11:54.673Z,58.17
2019-06-27T08:12:54.067Z,58.80
2019-06-27T08:13:54.083Z,59.59
2019-06-27T08:14:54.041Z,60.19
2019-06-27T08:15:54.170Z,59.83
2019-06-27T08:16:54.180Z,59.43
2019-06-27T08:17:54.014Z,59.36
2019-06-27T08:18:54.012Z,60.16
2019-06-27T08:19:53.979Z,60.49
2019-06-27T08:20:53.980Z,61.30
2019-06-27T08:21:53.976Z,61.07
2019-06-27T08:22:54.050Z,59.10
2019-06-27T08:23:53.938Z,57.97
2019-06-27T08:24:53.942Z,58.04
2019-06-27T08:25:53.911Z,57.37
2019-06-27T08:26:53.988Z,57.29
2019-06-27T08:27:53.902Z,57.39
2019-06-27T08:28:53.868Z,57.59
2019-06-27T08:29:53.996Z,56.66
2019-06-27T08:30:53.909Z,57.17
2019-06-27T08:31:53.836Z,57.77
2019-06-27T08:32:53.850Z,56.63
2019-06-27T08:33:53.809Z,55.91
2019-06-27T08:34:53.885Z,55.38
2019-06-27T08:35:53.920Z,55.58
2019-06-27T08:36:53.833Z,56.61
2019-06-27T08:37:53.822Z,57.14
2019-06-27T08:38:54.213Z,57.04
2019-06-27T08:39:53.760Z,57.44
2019-06-27T08:40:53.816Z,58.01
2019-06-27T08:41:53.762Z,59.10
2019-06-27T08:42:53.768Z,59.96
2019-06-27T08:43:53.793Z,59.63
2019-06-27T08:44:53.698Z,59.41
2019-06-27T08:45:53.706Z,59.60
2019-06-27T08:46:53.695Z,58.70
2019-06-27T08:47:53.691Z,59.41
2019-06-27T08:48:53.687Z,58.67
2019-06-27T08:49:53.848Z,58.94
2019-06-27T08:50:53.635Z,57.21
2019-06-27T08:51:53.610Z,57.98
2019-06-27T08:52:53.636Z,56.43
2019-06-27T08:53:53.653Z,55.93
2019-06-27T08:54:53.624Z,57.15
2019-06-27T08:55:53.660Z,56.56
2019-06-27T08:56:53.632Z,56.96
2019-06-27T08:57:53.761Z,56.43
2019-06-27T08:58:53.603Z,55.65
2019-06-27T08:59:54.550Z,56.02
2019-06-27T09:00:53.560Z,55.60
2019-06-27T09:02:07.530Z,55.60
2019-06-27T09:02:53.636Z,56.02
2019-06-27T09:03:53.642Z,56.52
2019-06-27T09:04:53.477Z,56.00
2019-06-27T09:05:53.470Z,55.70
2019-06-27T09:08:03.349Z,56.10
2019-06-27T09:09:04.015Z,56.10
2019-06-27T09:10:03.967Z,56.02
2019-06-27T09:11:04.073Z,57.33
2019-06-27T09:12:03.934Z,56.60
2019-06-27T09:13:04.174Z,56.33
2019-06-27T09:14:04.024Z,57.35
2019-06-27T09:15:03.984Z,57.93
2019-06-27T09:16:03.959Z,57.23
2019-06-27T09:17:03.886Z,57.76
2019-06-27T09:18:03.905Z,57.73
2019-06-27T09:19:04.137Z,57.20
2019-06-27T09:20:03.899Z,56.57
2019-06-27T09:21:03.863Z,56.45
2019-06-27T09:22:03.842Z,55.65
2019-06-27T09:23:03.863Z,56.17
2019-06-27T09:24:03.857Z,55.65
2019-06-27T09:25:03.837Z,55.35
2019-06-27T09:26:03.812Z,55.15
2019-06-27T09:27:03.776Z,56.20
2019-06-27T09:28:03.792Z,56.33
2019-06-27T09:29:03.854Z,56.73
2019-06-27T09:30:03.766Z,56.50
2019-06-27T09:31:03.751Z,55.94
2019-06-27T09:32:03.762Z,55.44
2019-06-27T09:33:03.755Z,54.74
2019-06-27T09:34:03.722Z,55.30
2019-06-27T09:35:03.717Z,56.00
2019-06-27T09:36:03.724Z,56.40
2019-06-27T09:37:03.699Z,55.77
2019-06-27T09:38:03.650Z,55.77
2019-06-27T09:39:03.674Z,55.90
2019-06-27T09:40:03.663Z,56.00
2019-06-27T09:41:03.683Z,56.30
2019-06-27T09:42:03.653Z,55.40
2019-06-27T09:43:03.624Z,56.10
2019-06-27T09:44:03.614Z,56.20
2019-06-27T09:45:03.872Z,56.33
2019-06-27T09:46:03.637Z,56.73
2019-06-27T09:47:05.120Z,56.43
2019-06-27T09:48:03.540Z,56.17
2019-06-27T09:49:03.606Z,54.82
2019-06-27T09:50:03.549Z,53.92
2019-06-27T09:51:03.566Z,55.07
2019-06-27T09:52:03.512Z,55.98
2019-06-27T09:53:03.498Z,55.22
2019-06-27T09:54:03.469Z,54.32
2019-06-27T09:55:03.552Z,54.64
2019-06-27T09:56:03.540Z,55.00
2019-06-27T09:57:03.531Z,54.47
2019-06-27T09:58:03.445Z,54.57
2019-06-27T09:59:03.427Z,54.44
2019-06-27T10:00:03.428Z,54.14
2019-06-27T10:01:05.875Z,54.44
2019-06-27T10:02:03.484Z,54.22
2019-06-27T10:03:03.440Z,53.59
2019-06-27T10:04:03.378Z,53.22
2019-06-27T10:05:03.410Z,53.55
2019-06-27T10:06:03.363Z,54.39
2019-06-27T10:07:03.352Z,54.10
2019-06-27T10:08:03.309Z,54.39
2019-06-27T10:09:03.303Z,54.39
2019-06-27T10:10:03.347Z,54.10
2019-06-27T10:11:03.533Z,54.39
2019-06-27T10:12:03.275Z,54.17
2019-06-27T10:13:03.341Z,53.97
2019-06-27T10:14:03.315Z,54.17
2019-06-27T10:15:03.297Z,54.00
2019-06-27T10:16:03.279Z,54.10
2019-06-27T10:17:03.253Z,54.07
2019-06-27T10:18:03.284Z,53.24
2019-06-27T10:19:03.223Z,52.02
2019-06-27T10:20:03.790Z,52.74
2019-06-27T10:21:03.179Z,53.34
2019-06-27T10:22:03.159Z,52.82
2019-06-27T10:23:03.200Z,51.59
2019-06-27T10:24:03.153Z,52.07
2019-06-27T10:25:03.184Z,50.54
2019-06-27T10:26:03.208Z,50.22
2019-06-27T10:27:03.113Z,50.67
2019-06-27T10:28:03.214Z,51.97
2019-06-27T10:29:03.129Z,51.45
2019-06-27T10:30:03.155Z,50.62
2019-06-27T10:31:03.132Z,49.57
2019-06-27T10:32:03.082Z,49.45
2019-06-27T10:33:03.160Z,49.32
2019-06-27T10:34:03.033Z,51.29
2019-06-27T10:35:03.205Z,52.19
2019-06-27T10:36:03.056Z,51.59
2019-06-27T10:37:03.135Z,51.47
2019-06-27T10:38:02.998Z,51.52
2019-06-27T10:39:03.015Z,50.42
2019-06-27T10:40:02.983Z,50.00
2019-06-27T10:41:03.057Z,51.15
2019-06-27T10:42:02.988Z,50.92
2019-06-27T10:43:02.974Z,50.22
2019-06-27T10:44:02.969Z,50.62
2019-06-27T10:45:03.003Z,50.72
2019-06-27T10:46:03.127Z,50.07
2019-06-27T10:47:02.898Z,49.45
2019-06-27T10:48:02.901Z,49.35
2019-06-27T10:49:02.995Z,49.77
2019-06-27T10:50:02.926Z,49.77
2019-06-27T10:51:02.994Z,49.35
2019-06-27T10:52:03.884Z,49.65
2019-06-27T10:53:02.889Z,49.55
2019-06-27T10:54:02.957Z,49.45
2019-06-27T10:55:02.874Z,49.48
2019-06-27T10:56:02.887Z,49.48
2019-06-27T10:57:02.898Z,50.22
2019-06-27T10:58:02.816Z,50.62
2019-06-27T10:59:02.789Z,50.70
2019-06-27T11:00:02.834Z,49.95
2019-06-27T11:01:02.767Z,49.33
2019-06-27T11:02:02.733Z,49.01
2019-06-27T11:03:14.828Z,48.28
2019-06-27T11:04:02.723Z,47.77
2019-06-27T11:05:02.727Z,47.77
2019-06-27T11:06:02.857Z,47.77
2019-06-27T11:07:02.736Z,46.77
2019-06-27T11:09:14.352Z,47.91
2019-06-27T11:10:12.831Z,49.35
2019-06-27T11:11:12.834Z,49.77
2019-06-27T11:12:12.810Z,49.15
2019-06-27T11:13:12.800Z,48.01
2019-06-27T11:14:13.021Z,48.68
2019-06-27T11:15:12.845Z,47.86
2019-06-27T11:16:12.825Z,46.87
2019-06-27T11:17:12.761Z,47.54
2019-06-27T11:18:12.765Z,47.56
2019-06-27T11:19:12.732Z,47.49
2019-06-27T11:20:15.129Z,48.11
2019-06-27T11:21:13.998Z,48.79
2019-06-27T11:22:12.700Z,47.96
2019-06-27T11:23:12.682Z,47.56
2019-06-27T11:24:12.681Z,47.94
2019-06-27T11:25:12.673Z,46.92
2019-06-27T11:26:12.674Z,46.72
2019-06-27T11:27:12.652Z,47.22
2019-06-27T11:28:12.661Z,46.83
2019-06-27T11:29:12.631Z,47.02
2019-06-27T11:30:12.637Z,45.83
2019-06-27T11:31:12.602Z,47.17
2019-06-27T11:32:12.638Z,46.84
2019-06-27T11:33:12.592Z,46.65
2019-06-27T11:34:12.576Z,47.07
2019-06-27T11:35:12.572Z,47.31
2019-06-27T11:36:12.564Z,47.61
2019-06-27T11:37:12.557Z,47.79
2019-06-27T11:38:12.523Z,46.77
2019-06-27T11:39:12.539Z,46.55
2019-06-27T11:40:12.679Z,46.65
2019-06-27T11:41:12.495Z,46.65
2019-06-27T11:42:12.584Z,47.54
2019-06-27T11:43:12.486Z,46.95
2019-06-27T11:44:12.472Z,46.92
2019-06-27T11:45:12.455Z,47.96
2019-06-27T11:46:12.461Z,47.79
2019-06-27T11:47:12.485Z,48.36
2019-06-27T11:48:12.421Z,47.96
2019-06-27T11:49:12.453Z,47.84
2019-06-27T11:50:12.424Z,47.22
2019-06-27T11:51:12.397Z,47.54
2019-06-27T11:52:12.391Z,47.52
2019-06-27T11:53:12.368Z,46.23
2019-06-27T11:54:12.354Z,46.50
2019-06-27T11:55:12.348Z,46.92
2019-06-27T11:56:12.378Z,47.66
2019-06-27T11:57:12.368Z,47.64
2019-06-27T11:58:12.335Z,47.44
2019-06-27T11:59:12.321Z,46.83
2019-06-27T12:00:12.313Z,47.42
2019-06-27T12:01:12.307Z,46.53
2019-06-27T12:02:12.323Z,46.92
2019-06-27T12:03:12.260Z,47.22
2019-06-27T12:04:12.329Z,47.40
2019-06-27T12:05:12.251Z,46.90
2019-06-27T12:06:12.239Z,47.64
2019-06-27T12:07:12.236Z,47.44
2019-06-27T12:08:12.205Z,48.46
2019-06-27T12:09:12.202Z,48.98
2019-06-27T12:10:12.220Z,48.66
2019-06-27T12:11:12.189Z,49.18
2019-06-27T12:12:12.185Z,47.94
2019-06-27T12:13:12.166Z,47.74
2019-06-27T12:14:12.155Z,47.32
2019-06-27T12:15:12.145Z,47.80
2019-06-27T12:16:12.140Z,47.82
2019-06-27T12:17:12.136Z,46.98
2019-06-27T12:18:12.146Z,47.30
2019-06-27T12:19:12.623Z,47.60
2019-06-27T12:20:12.084Z,47.50
2019-06-27T12:22:20.797Z,46.78
2019-06-27T12:23:21.789Z,46.88
2019-06-27T12:24:21.752Z,46.16
2019-06-27T12:25:21.742Z,45.96
2019-06-27T12:26:21.727Z,46.06
2019-06-27T12:27:21.715Z,45.86
2019-06-27T12:28:21.727Z,46.16
2019-06-27T12:29:21.701Z,45.64
2019-06-27T12:30:21.710Z,45.94
2019-06-27T12:31:21.670Z,46.80
2019-06-27T12:32:21.670Z,47.84
2019-06-27T12:33:21.674Z,47.47
2019-06-27T12:34:21.699Z,46.76
2019-06-27T12:35:21.646Z,45.84
2019-06-27T12:36:21.651Z,46.46
2019-06-27T12:37:21.598Z,46.08
2019-06-27T12:38:21.610Z,46.98
2019-06-27T12:39:21.595Z,47.13
2019-06-27T12:40:21.588Z,47.44
2019-06-27T12:41:21.567Z,46.84
2019-06-27T12:42:32.091Z,46.23
2019-06-27T12:43:21.562Z,46.11
2019-06-27T12:45:30.221Z,45.89
2019-06-27T12:46:31.244Z,45.59
2019-06-27T12:47:31.188Z,45.79
2019-06-27T12:48:31.175Z,46.92
2019-06-27T12:49:49.814Z,46.92
2019-06-27T12:50:31.157Z,46.90
2019-06-27T12:51:31.138Z,45.89
2019-06-27T12:52:31.138Z,45.76
2019-06-27T12:53:31.126Z,45.54
2019-06-27T12:54:31.253Z,45.32
2019-06-27T12:55:31.115Z,44.71
2019-06-27T12:56:31.093Z,44.93
2019-06-27T12:57:31.076Z,44.71
2019-06-27T12:58:32.013Z,44.31
2019-06-27T12:59:31.495Z,43.79
2019-06-27T13:00:31.976Z,44.29
2019-06-27T13:01:31.973Z,43.70